Time;durP1;ratioP1;P1;durP2;ratioP2;P2;SDS_P1;SDS_P2;PMS_P1;PMS_P2;Temp;Humidity;BMP_temperature;BMP_pressure;BME280_temperature;BME280_humidity;BME280_pressure;Samples;Min_cycle;Max_cycle;Signal;HPM_P1;HPM_P2
2021/01/17 00:00:23;;;;;;;37.17;23.42;;;;;;;0.66;93.17;100525.55;635419;221;33033;-75
2021/01/17 00:02:51;;;;;;;31.60;20.40;;;;;;;0.13;94.18;100526.36;646509;220;23674;-74
2021/01/17 00:05:19;;;;;;;35.68;23.70;;;;;;;0.35;93.67;100527.02;623562;226;33228;-74
2021/01/17 00:07:47;;;;;;;28.73;19.33;;;;;;;-0.25;94.73;100526.84;643944;221;23654;-74
2021/01/17 00:10:15;;;;;;;32.78;21.80;;;;;;;0.20;95.21;100522.17;636560;221;32728;-74
2021/01/17 00:12:43;;;;;;;33.17;20.60;;;;;;;-0.24;96.54;100517.83;638981;220;23674;-73
2021/01/17 00:15:11;;;;;;;35.83;24.43;;;;;;;0.29;95.80;100520.48;636263;221;33050;-73
2021/01/17 00:17:39;;;;;;;32.57;21.53;;;;;;;-0.19;96.13;100505.66;644636;221;23838;-74
2021/01/17 00:20:07;;;;;;;39.13;27.48;;;;;;;0.29;94.81;100506.41;635286;222;32750;-74
2021/01/17 00:22:35;;;;;;;35.15;25.27;;;;;;;0.42;93.90;100499.41;629423;225;33247;-75
2021/01/17 00:25:04;;;;;;;32.98;22.65;;;;;;;0.62;93.56;100494.62;632962;222;33240;-74
2021/01/17 00:27:32;;;;;;;31.07;20.00;;;;;;;0.04;95.10;100496.95;642273;222;23695;-74
2021/01/17 00:30:00;;;;;;;29.60;18.33;;;;;;;-0.13;96.10;100501.56;644643;222;24809;-74
2021/01/17 00:32:28;;;;;;;32.48;21.20;;;;;;;0.40;95.11;100500.76;641138;218;43386;-75
2021/01/17 00:34:56;;;;;;;32.20;20.07;;;;;;;-0.15;96.09;100488.00;653748;218;23645;-73
2021/01/17 00:37:24;;;;;;;31.57;21.55;;;;;;;0.27;95.56;100485.62;643252;217;32852;-75
2021/01/17 00:39:52;;;;;;;34.30;20.10;;;;;;;0.09;95.61;100484.77;643199;221;23678;-73
2021/01/17 00:42:20;;;;;;;38.70;23.52;;;;;;;0.67;94.17;100468.34;641824;222;32739;-73
2021/01/17 00:44:48;;;;;;;48.30;22.50;;;;;;;0.17;95.56;100466.07;640922;222;23671;-75
2021/01/17 00:47:15;;;;;;;38.67;24.18;;;;;;;0.78;93.62;100462.23;632177;221;32840;-73
2021/01/17 00:49:44;;;;;;;41.10;22.17;;;;;;;0.16;95.25;100458.02;651080;217;23722;-73
2021/01/17 00:52:17;;;;;;;50.90;27.80;;;;;;;0.73;94.38;100448.86;630766;221;32720;-74
2021/01/17 00:54:45;;;;;;;35.73;20.87;;;;;;;0.12;94.97;100445.44;640848;221;23975;-73
2021/01/17 00:57:13;;;;;;;41.42;25.17;;;;;;;0.76;93.76;100447.42;648077;218;32905;-74
2021/01/17 00:59:42;;;;;;;38.58;25.17;;;;;;;0.87;93.42;100434.45;642825;221;32550;-74
2021/01/17 01:02:10;;;;;;;31.97;20.20;;;;;;;0.28;94.17;100432.28;648517;221;23616;-73
2021/01/17 01:04:37;;;;;;;36.10;24.05;;;;;;;0.89;93.81;100431.36;650890;217;32720;-74
2021/01/17 01:07:05;;;;;;;33.77;20.13;;;;;;;0.29;95.13;100435.25;651700;217;23666;-74
2021/01/17 01:09:33;;;;;;;34.60;19.17;;;;;;;0.37;95.19;100425.91;654478;217;24761;-74
2021/01/17 01:12:01;;;;;;;37.00;24.25;;;;;;;0.74;94.63;100419.80;652491;217;32577;-74
2021/01/17 01:14:29;;;;;;;33.87;21.03;;;;;;;0.40;94.97;100424.02;654265;217;23721;-75
2021/01/17 01:16:57;;;;;;;38.50;24.52;;;;;;;0.86;94.31;100414.05;651340;217;32581;-74
2021/01/17 01:19:25;;;;;;;39.00;23.13;;;;;;;0.30;95.25;100411.33;653081;217;25808;-73
2021/01/17 01:21:53;;;;;;;38.65;24.75;;;;;;;0.75;94.64;100406.09;648425;217;32573;-75
2021/01/17 01:24:21;;;;;;;36.60;21.07;;;;;;;0.37;95.19;100401.16;653843;217;23657;-75
2021/01/17 01:26:49;;;;;;;35.80;23.73;;;;;;;0.75;94.85;100396.68;645999;217;32588;-72
2021/01/17 01:29:17;;;;;;;34.43;20.47;;;;;;;0.38;95.47;100402.80;659788;217;23654;-75
2021/01/17 01:31:45;;;;;;;39.73;24.98;;;;;;;0.83;94.56;100404.77;653258;217;32883;-75
2021/01/17 01:34:13;;;;;;;34.67;21.80;;;;;;;0.33;95.15;100401.39;661275;217;23656;-75
2021/01/17 01:36:41;;;;;;;40.35;25.85;;;;;;;0.74;94.45;100396.31;644594;217;32678;-74
2021/01/17 01:39:09;;;;;;;37.90;22.87;;;;;;;0.38;95.66;100391.75;650407;217;23628;-75
2021/01/17 01:41:37;;;;;;;35.33;21.73;;;;;;;0.26;96.44;100397.84;657759;217;24752;-74
2021/01/17 01:44:05;;;;;;;41.30;24.65;;;;;;;0.72;95.26;100396.02;653587;217;43309;-75
2021/01/17 01:46:33;;;;;;;34.10;20.57;;;;;;;0.38;95.83;100405.36;657780;217;23644;-74
2021/01/17 01:49:01;;;;;;;38.88;24.63;;;;;;;0.73;95.42;100396.39;651863;217;43032;-75
2021/01/17 01:51:29;;;;;;;37.70;22.73;;;;;;;0.41;95.39;100392.41;648552;217;23654;-74
2021/01/17 01:53:57;;;;;;;38.70;24.10;;;;;;;0.64;94.95;100391.72;648149;217;32533;-73
2021/01/17 01:56:25;;;;;;;38.57;22.27;;;;;;;0.37;96.09;100397.77;651299;216;23652;-73
2021/01/17 01:58:53;;;;;;;40.73;24.98;;;;;;;0.78;95.42;100391.84;645488;216;32578;-74
2021/01/17 02:01:20;;;;;;;37.90;21.30;;;;;;;0.42;95.91;100390.23;659007;217;23653;-74
2021/01/17 02:03:48;;;;;;;41.95;26.40;;;;;;;0.82;94.51;100386.94;649214;217;32613;-74
2021/01/17 02:06:19;;;;;;;43.83;27.13;;;;;;;0.94;94.35;100374.79;654467;217;33512;-75
2021/01/17 02:08:58;;;;;;;46.28;27.67;;;;;;;0.84;93.37;100371.05;647538;217;43349;-75
2021/01/17 02:11:31;;;;;;;38.53;21.93;;;;;;;0.33;95.29;100386.88;653110;217;23652;-74
2021/01/17 02:14:02;;;;;;;43.05;26.77;;;;;;;0.52;95.28;100382.93;648886;217;32538;-74
2021/01/17 02:16:30;;;;;;;36.23;21.40;;;;;;;0.32;95.98;100394.17;650240;217;24819;-74
2021/01/17 02:18:58;;;;;;;41.83;25.50;;;;;;;0.58;95.55;100390.31;645051;217;32594;-73
2021/01/17 02:21:25;;;;;;;38.13;21.90;;;;;;;0.37;95.13;100384.98;653768;217;25802;-74
2021/01/17 02:23:53;;;;;;;40.38;25.90;;;;;;;0.65;95.32;100386.98;647678;217;32597;-74
2021/01/17 02:26:21;;;;;;;37.50;22.60;;;;;;;0.41;96.25;100388.58;659418;217;23651;-73
2021/01/17 02:28:49;;;;;;;44.93;27.25;;;;;;;0.50;95.82;100386.85;653087;217;32808;-73
2021/01/17 02:31:17;;;;;;;41.13;26.23;;;;;;;0.74;95.39;100378.84;651735;217;32536;-74
2021/01/17 02:33:45;;;;;;;35.63;21.37;;;;;;;0.34;96.69;100383.86;655319;217;24752;-74
2021/01/17 02:36:17;;;;;;;39.25;25.23;;;;;;;0.74;95.87;100378.39;648785;217;32636;-74
2021/01/17 02:38:48;;;;;;;32.70;20.10;;;;;;;0.31;96.92;100388.68;654143;217;23688;-75
2021/01/17 02:41:17;;;;;;;39.70;24.67;;;;;;;0.55;95.53;100382.77;652692;217;32583;-74
2021/01/17 02:43:45;;;;;;;39.53;24.43;;;;;;;0.88;95.02;100381.52;654984;217;32646;-74
2021/01/17 02:46:13;;;;;;;34.00;20.33;;;;;;;0.48;96.88;100383.55;659278;217;24057;-74
2021/01/17 02:48:41;;;;;;;36.45;24.07;;;;;;;0.94;95.32;100366.28;649035;217;32585;-74
2021/01/17 02:51:09;;;;;;;30.20;21.10;;;;;;;0.41;96.00;100363.00;655189;217;23656;-73
2021/01/17 02:53:41;;;;;;;37.40;24.05;;;;;;;0.77;94.70;100364.15;654555;217;32640;-74
2021/01/17 02:56:10;;;;;;;32.63;20.30;;;;;;;0.21;97.06;100365.73;648615;217;23927;-74
2021/01/17 02:58:38;;;;;;;38.05;24.00;;;;;;;0.84;95.57;100364.19;644047;217;32640;-74
2021/01/17 03:01:05;;;;;;;38.23;24.92;;;;;;;1.04;94.88;100355.48;652362;217;32595;-74
2021/01/17 03:03:35;;;;;;;35.60;20.83;;;;;;;0.53;95.84;100355.98;656141;217;23647;-74
2021/01/17 03:06:03;;;;;;;36.50;23.80;;;;;;;0.78;95.39;100349.16;649013;217;32841;-74
2021/01/17 03:08:30;;;;;;;33.00;20.10;;;;;;;0.41;96.04;100355.77;657675;217;23728;-74
2021/01/17 03:10:58;;;;;;;29.97;18.80;;;;;;;0.27;96.80;100361.58;654234;217;24769;-74
2021/01/17 03:13:26;;;;;;;37.75;23.77;;;;;;;0.56;95.75;100357.56;644419;217;44334;-74
2021/01/17 03:15:54;;;;;;;38.83;20.67;;;;;;;0.27;96.63;100355.19;652289;217;23655;-75
2021/01/17 03:18:22;;;;;;;38.53;24.30;;;;;;;0.89;95.52;100346.88;652928;217;32844;-75
2021/01/17 03:20:50;;;;;;;38.67;25.27;;;;;;;0.98;94.69;100330.64;648417;217;32574;-74
2021/01/17 03:23:18;;;;;;;36.93;20.97;;;;;;;0.45;95.69;100340.67;650824;217;23634;-74
2021/01/17 03:25:46;;;;;;;38.28;24.98;;;;;;;0.88;94.17;100335.44;649820;217;32594;-75
2021/01/17 03:28:14;;;;;;;38.33;20.43;;;;;;;0.35;95.70;100333.91;652136;217;23635;-75
2021/01/17 03:30:42;;;;;;;33.33;20.30;;;;;;;0.16;96.63;100342.13;654746;217;24754;-74
2021/01/17 03:33:10;;;;;;;29.90;19.13;;;;;;;0.08;97.23;100348.06;657874;217;24763;-74
2021/01/17 03:35:38;;;;;;;32.67;21.82;;;;;;;0.52;97.11;100347.11;644150;217;32605;-74
2021/01/17 03:38:06;;;;;;;34.20;19.40;;;;;;;0.23;96.93;100344.75;652427;217;24952;-74
2021/01/17 03:40:34;;;;;;;34.27;21.80;;;;;;;0.67;95.54;100341.66;646570;217;43585;-74
2021/01/17 03:43:03;;;;;;;30.10;19.00;;;;;;;0.24;96.94;100345.12;648906;217;23642;-72
2021/01/17 03:45:32;;;;;;;34.13;19.50;;;;;;;0.31;97.23;100340.09;644880;217;24845;-74
2021/01/17 03:48:01;;;;;;;27.57;17.80;;;;;;;0.19;97.85;100340.24;658457;217;24770;-75
2021/01/17 03:50:29;;;;;;;29.23;17.17;;;;;;;0.06;97.93;100347.31;649639;217;24750;-74
2021/01/17 03:52:56;;;;;;;30.63;17.13;;;;;;;0.05;98.51;100350.77;648328;217;24747;-73
2021/01/17 03:55:24;;;;;;;30.93;17.60;;;;;;;0.03;98.20;100345.74;640356;222;26319;-74
2021/01/17 03:57:52;;;;;;;25.77;15.73;;;;;;;-0.07;98.80;100348.36;635770;222;24792;-72
2021/01/17 04:00:21;;;;;;;28.67;18.07;;;;;;;-0.03;98.55;100354.52;655697;219;24739;-73
2021/01/17 04:02:49;;;;;;;26.90;17.67;;;;;;;-0.04;98.98;100348.20;652143;218;24745;-74
2021/01/17 04:05:17;;;;;;;28.80;17.17;;;;;;;0.01;99.26;100355.67;644806;222;24737;-74
2021/01/17 04:07:45;;;;;;;34.50;21.45;;;;;;;0.51;97.55;100346.29;631268;221;32599;-74
2021/01/17 04:10:13;;;;;;;27.90;18.17;;;;;;;0.11;97.97;100342.34;647111;221;23661;-74
2021/01/17 04:12:41;;;;;;;29.53;17.50;;;;;;;-0.06;98.38;100343.62;645209;218;24752;-74
2021/01/17 04:15:10;;;;;;;26.53;16.70;;;;;;;-0.03;98.35;100350.68;639491;222;28000;-74
2021/01/17 04:17:38;;;;;;;26.30;17.50;;;;;;;-0.04;98.97;100354.14;646066;221;24830;-72
2021/01/17 04:20:07;;;;;;;28.20;18.03;;;;;;;0.00;99.10;100352.29;643237;222;25040;-74
2021/01/17 04:22:37;;;;;;;27.07;16.07;;;;;;;-0.04;98.85;100354.59;652155;217;24770;-74
2021/01/17 04:25:07;;;;;;;26.50;17.40;;;;;;;-0.11;99.08;100360.92;651008;218;24757;-74
2021/01/17 04:27:35;;;;;;;28.50;16.37;;;;;;;-0.20;98.85;100364.73;640223;221;26048;-74
2021/01/17 04:30:04;;;;;;;30.90;20.43;;;;;;;0.27;97.60;100357.29;638792;221;32688;-76
2021/01/17 04:32:32;;;;;;;27.03;17.90;;;;;;;-0.04;98.02;100361.81;638960;221;23663;-75
2021/01/17 04:35:01;;;;;;;26.97;16.90;;;;;;;-0.08;98.50;100359.03;651749;218;25137;-75
2021/01/17 04:37:27;;;;;;;29.77;20.60;;;;;;;0.62;97.12;100359.82;645229;218;32532;-75
2021/01/17 04:39:55;;;;;;;29.20;19.70;;;;;;;0.25;97.29;100358.27;641836;221;23666;-73
2021/01/17 04:42:23;;;;;;;33.60;22.48;;;;;;;0.74;96.41;100357.91;637753;221;32741;-72
2021/01/17 04:44:51;;;;;;;33.23;20.53;;;;;;;0.35;96.89;100348.42;646143;218;23644;-75
2021/01/17 04:47:19;;;;;;;29.90;18.30;;;;;;;0.49;97.07;100358.78;649367;218;24759;-76
2021/01/17 04:49:47;;;;;;;29.07;18.17;;;;;;;0.19;97.76;100357.31;651891;218;24788;-74
2021/01/17 04:52:15;;;;;;;29.80;17.90;;;;;;;0.27;97.73;100367.97;654121;218;24759;-74
2021/01/17 04:54:43;;;;;;;31.63;19.03;;;;;;;0.15;98.36;100370.71;652334;219;24768;-74
2021/01/17 04:57:12;;;;;;;30.87;17.33;;;;;;;0.12;98.61;100375.13;641179;221;24784;-73
2021/01/17 04:59:45;;;;;;;35.85;23.50;;;;;;;0.70;96.81;100366.64;644727;218;32588;-76
2021/01/17 05:02:33;;;;;;;34.10;21.07;;;;;;;0.28;97.93;100364.52;639922;222;23893;-75
2021/01/17 05:05:14;;;;;;;38.07;24.90;;;;;;;0.96;95.65;100357.61;640118;221;43613;-76
2021/01/17 05:07:46;;;;;;;34.60;20.87;;;;;;;0.37;96.98;100355.56;636204;221;24817;-75
2021/01/17 05:10:14;;;;;;;38.17;24.43;;;;;;;0.74;96.14;100359.65;641300;222;32750;-75
2021/01/17 05:12:42;;;;;;;35.17;20.90;;;;;;;0.39;96.88;100355.03;638259;222;23674;-76
2021/01/17 05:15:10;;;;;;;33.00;20.57;;;;;;;0.33;97.31;100361.30;644739;222;24796;-76
2021/01/17 05:17:38;;;;;;;32.90;18.90;;;;;;;0.20;97.78;100360.25;640024;221;24810;-76
2021/01/17 05:20:07;;;;;;;33.33;18.43;;;;;;;0.05;98.58;100361.83;638253;222;24809;-73
2021/01/17 05:22:35;;;;;;;31.30;18.20;;;;;;;-0.07;99.36;100359.41;659248;217;24772;-74
2021/01/17 05:25:04;;;;;;;37.80;24.23;;;;;;;0.36;98.49;100356.47;649690;217;32569;-73
2021/01/17 05:27:32;;;;;;;35.20;21.20;;;;;;;0.11;98.27;100360.69;637342;222;23679;-73
2021/01/17 05:30:00;;;;;;;35.40;20.13;;;;;;;0.02;98.42;100357.32;647677;217;24757;-73
2021/01/17 05:32:27;;;;;;;37.17;21.60;;;;;;;-0.11;99.24;100364.75;636652;220;24772;-74
2021/01/17 05:34:55;;;;;;;42.65;27.05;;;;;;;-0.07;99.59;100365.80;642125;217;32621;-76
2021/01/17 05:37:23;;;;;;;49.63;25.17;;;;;;;-0.54;100.00;100369.78;658855;217;23717;-76
2021/01/17 05:39:55;;;;;;;49.42;28.77;;;;;;;-0.45;100.00;100368.88;651012;217;32573;-75
2021/01/17 05:42:23;;;;;;;43.83;24.50;;;;;;;-0.45;100.00;100363.77;656013;217;25798;-75
2021/01/17 05:44:51;;;;;;;50.40;29.82;;;;;;;-0.75;100.00;100369.84;650086;214;43277;-75
2021/01/17 05:47:21;;;;;;;48.47;25.27;;;;;;;-0.71;100.00;100380.29;660695;217;23679;-75
2021/01/17 05:49:49;;;;;;;50.33;30.02;;;;;;;-0.53;100.00;100374.81;652064;217;32545;-75
2021/01/17 05:52:17;;;;;;;50.48;28.87;;;;;;;-0.33;100.00;100370.88;644960;217;43220;-76
2021/01/17 05:54:47;;;;;;;43.93;23.33;;;;;;;-0.54;100.00;100375.72;659753;217;23649;-76
2021/01/17 05:57:15;;;;;;;50.10;28.47;;;;;;;0.15;100.00;100364.77;651317;217;33030;-74
2021/01/17 05:59:43;;;;;;;45.88;27.58;;;;;;;0.24;100.00;100360.46;651764;217;32580;-73
2021/01/17 06:02:14;;;;;;;40.70;23.23;;;;;;;-0.15;100.00;100369.61;656448;217;23661;-73
2021/01/17 06:04:42;;;;;;;42.35;26.15;;;;;;;0.23;99.60;100367.76;654499;217;32656;-74
2021/01/17 06:07:10;;;;;;;41.17;22.60;;;;;;;0.19;100.00;100371.38;657408;217;23703;-74
2021/01/17 06:09:38;;;;;;;40.15;25.32;;;;;;;0.14;99.80;100375.87;650069;217;32949;-74
2021/01/17 06:12:07;;;;;;;37.90;21.30;;;;;;;-0.12;100.00;100370.31;653584;217;23681;-74
2021/01/17 06:14:35;;;;;;;42.05;25.57;;;;;;;0.45;100.00;100364.52;644458;217;32608;-74
2021/01/17 06:17:03;;;;;;;36.40;22.60;;;;;;;0.13;100.00;100361.44;656774;217;23643;-74
2021/01/17 06:19:33;;;;;;;41.68;24.92;;;;;;;0.55;98.76;100359.29;648680;217;32671;-74
2021/01/17 06:22:02;;;;;;;36.57;21.47;;;;;;;0.39;98.97;100360.97;654317;217;23697;-74
2021/01/17 06:24:36;;;;;;;43.13;24.90;;;;;;;0.67;98.32;100357.84;648515;217;32636;-74
2021/01/17 06:27:04;;;;;;;35.00;20.50;;;;;;;0.26;99.70;100354.81;653775;217;23674;-76
2021/01/17 06:29:36;;;;;;;41.05;25.20;;;;;;;0.97;97.73;100355.87;643021;217;32599;-74
2021/01/17 06:32:12;;;;;;;38.20;21.93;;;;;;;0.36;99.07;100358.58;653001;217;23711;-74
2021/01/17 06:34:44;;;;;;;41.75;25.30;;;;;;;0.18;98.35;100354.38;646299;217;32631;-75
2021/01/17 06:37:12;;;;;;;39.98;24.40;;;;;;;0.61;98.35;100359.45;646922;217;32600;-74
2021/01/17 06:39:43;;;;;;;41.47;22.20;;;;;;;0.28;99.08;100363.23;652631;217;23653;-74
2021/01/17 06:42:11;;;;;;;41.23;25.25;;;;;;;0.63;98.15;100364.03;646869;217;32539;-73
2021/01/17 06:44:39;;;;;;;36.00;21.13;;;;;;;0.31;99.18;100363.55;651800;217;23692;-72
2021/01/17 06:47:13;;;;;;;38.73;23.75;;;;;;;0.65;97.47;100369.06;646696;217;32645;-74
2021/01/17 06:49:41;;;;;;;32.97;19.23;;;;;;;0.34;98.82;100371.07;654912;217;23648;-73
2021/01/17 06:52:10;;;;;;;38.40;23.35;;;;;;;0.84;97.97;100368.48;640168;221;32867;-74
2021/01/17 06:54:37;;;;;;;35.77;20.77;;;;;;;0.29;98.87;100372.59;646823;221;23683;-73
2021/01/17 06:57:05;;;;;;;36.05;23.25;;;;;;;0.67;97.88;100380.05;643020;220;32764;-72
2021/01/17 06:59:34;;;;;;;33.60;21.43;;;;;;;0.15;99.11;100389.06;650544;217;23641;-73
2021/01/17 07:02:12;;;;;;;34.03;19.37;;;;;;;0.25;100.00;100394.08;646606;221;24810;-73
2021/01/17 07:04:41;;;;;;;36.73;23.83;;;;;;;0.74;99.16;100391.19;640317;220;32747;-75
2021/01/17 07:07:31;;;;;;;37.43;21.00;;;;;;;0.44;98.74;100393.56;644222;221;23666;-74
2021/01/17 07:10:01;;;;;;;34.17;17.80;;;;;;;0.40;99.86;100397.61;639140;221;24824;-76
2021/01/17 07:12:35;;;;;;;34.63;21.97;;;;;;;0.86;98.22;100398.70;633087;222;32820;-72
2021/01/17 07:15:05;;;;;;;36.28;22.93;;;;;;;0.89;96.50;100395.52;631928;222;32763;-72
2021/01/17 07:17:34;;;;;;;40.12;24.80;;;;;;;0.95;97.15;100400.77;633276;221;32838;-72
2021/01/17 07:20:04;;;;;;;33.73;19.90;;;;;;;0.39;98.64;100410.03;640418;221;23673;-72
2021/01/17 07:22:32;;;;;;;38.83;22.90;;;;;;;0.59;98.19;100411.16;641878;218;32604;-73
2021/01/17 07:25:01;;;;;;;31.13;19.30;;;;;;;0.39;98.92;100421.09;637641;222;23674;-73
2021/01/17 07:27:39;;;;;;;36.40;19.80;;;;;;;0.29;99.46;100421.19;641001;221;24807;-73
2021/01/17 07:30:09;;;;;;;36.73;23.05;;;;;;;0.46;99.06;100426.29;639376;221;32643;-73
2021/01/17 07:32:37;;;;;;;33.17;19.87;;;;;;;0.20;100.00;100430.12;641031;222;23681;-73
2021/01/17 07:35:07;;;;;;;36.77;22.93;;;;;;;0.50;99.51;100431.62;644909;217;32671;-73
2021/01/17 07:37:35;;;;;;;40.27;24.37;;;;;;;0.47;99.21;100430.95;636242;221;43383;-73
2021/01/17 07:40:07;;;;;;;36.40;20.57;;;;;;;-0.18;100.00;100439.59;639275;222;24797;-72
2021/01/17 07:42:34;;;;;;;39.20;24.70;;;;;;;0.04;100.00;100438.59;635430;222;32808;-72
2021/01/17 07:45:15;;;;;;;43.33;26.40;;;;;;;-0.04;100.00;100441.50;635565;221;33468;-75
2021/01/17 07:47:44;;;;;;;41.23;22.30;;;;;;;0.08;100.00;100449.05;654114;217;23916;-72
2021/01/17 07:50:12;;;;;;;39.67;24.02;;;;;;;0.21;100.00;100453.50;636622;221;32829;-73
2021/01/17 07:52:40;;;;;;;38.40;23.80;;;;;;;0.15;100.00;100452.53;644204;218;32570;-75
2021/01/17 07:55:10;;;;;;;38.07;19.67;;;;;;;0.09;100.00;100459.66;654489;218;23636;-72
2021/01/17 07:57:38;;;;;;;41.50;24.98;;;;;;;0.31;100.00;100459.02;647769;216;32636;-72
2021/01/17 08:00:07;;;;;;;37.37;20.03;;;;;;;0.11;100.00;100465.06;642748;221;26885;-73
2021/01/17 08:02:35;;;;;;;39.40;23.60;;;;;;;0.17;100.00;100474.19;640831;220;32843;-73
2021/01/17 08:05:03;;;;;;;42.53;25.50;;;;;;;0.11;100.00;100468.90;634930;221;32740;-73
2021/01/17 08:07:32;;;;;;;40.83;21.90;;;;;;;0.05;100.00;100479.88;643781;221;23693;-73
2021/01/17 08:10:00;;;;;;;41.05;24.67;;;;;;;0.25;100.00;100486.15;636168;221;32727;-73
2021/01/17 08:12:38;;;;;;;39.70;24.57;;;;;;;0.65;100.00;100482.95;633388;221;32745;-73
2021/01/17 08:15:13;;;;;;;41.53;21.90;;;;;;;0.74;100.00;100476.93;647339;219;26884;-74
2021/01/17 08:17:41;;;;;;;39.42;23.75;;;;;;;1.30;99.60;100470.66;637239;221;33561;-73
2021/01/17 08:20:09;;;;;;;38.17;21.00;;;;;;;0.73;99.97;100476.55;648241;217;25797;-72
2021/01/17 08:22:44;;;;;;;40.75;24.43;;;;;;;1.36;98.81;100475.91;631155;221;32723;-76
2021/01/17 08:25:14;;;;;;;34.10;20.10;;;;;;;0.95;99.07;100482.69;640505;221;23669;-75
2021/01/17 08:27:42;;;;;;;39.60;24.15;;;;;;;1.13;97.90;100480.50;642188;221;32645;-73
2021/01/17 08:30:21;;;;;;;34.57;20.80;;;;;;;0.94;98.52;100478.94;640750;220;23666;-73
2021/01/17 08:32:49;;;;;;;33.77;19.50;;;;;;;0.83;98.44;100487.14;637970;221;24829;-75
2021/01/17 08:35:28;;;;;;;33.87;19.60;;;;;;;0.82;98.77;100484.21;646009;221;24816;-75
2021/01/17 08:37:55;;;;;;;34.00;18.73;;;;;;;0.55;100.00;100494.90;644019;221;24872;-72
2021/01/17 08:40:41;;;;;;;32.27;17.03;;;;;;;0.74;99.33;100485.06;639552;221;26220;-72
2021/01/17 08:43:09;;;;;;;38.83;24.25;;;;;;;1.26;98.54;100481.13;635646;221;32747;-72
2021/01/17 08:45:37;;;;;;;36.20;21.13;;;;;;;0.97;97.91;100487.73;640860;222;23673;-72
2021/01/17 08:48:21;;;;;;;29.73;18.77;;;;;;;0.92;98.61;100493.09;641962;222;24844;-72
2021/01/17 08:50:49;;;;;;;33.27;17.63;;;;;;;1.17;97.93;100487.56;647790;217;24801;-72
2021/01/17 08:53:18;;;;;;;36.90;22.85;;;;;;;1.68;96.19;100482.70;629538;222;32827;-72
2021/01/17 08:55:47;;;;;;;40.37;22.30;;;;;;;1.01;97.61;100484.96;640960;222;23704;-72
2021/01/17 08:58:16;;;;;;;34.67;19.43;;;;;;;1.11;98.41;100500.22;647296;218;26002;-72
2021/01/17 09:01:02;;;;;;;29.07;17.03;;;;;;;0.90;98.32;100508.98;640749;222;24791;-72
2021/01/17 09:03:31;;;;;;;28.80;17.00;;;;;;;0.97;98.83;100508.22;653987;217;24754;-75
2021/01/17 09:05:59;;;;;;;30.87;17.27;;;;;;;1.30;98.47;100505.70;633556;221;25082;-72
2021/01/17 09:08:26;;;;;;;33.13;18.60;;;;;;;1.40;98.34;100508.14;640525;221;24811;-72
2021/01/17 09:10:55;;;;;;;29.40;17.77;;;;;;;1.31;97.85;100512.02;644649;221;24838;-72
2021/01/17 09:13:23;;;;;;;30.60;18.40;;;;;;;1.21;98.67;100517.23;646844;220;24798;-72
2021/01/17 09:15:57;;;;;;;30.67;18.77;;;;;;;1.25;98.38;100517.89;629454;225;24876;-72
2021/01/17 09:18:25;;;;;;;31.20;18.10;;;;;;;1.16;98.14;100521.31;638058;222;24809;-72
2021/01/17 09:20:53;;;;;;;27.17;16.70;;;;;;;1.07;99.03;100523.50;638476;221;24854;-73
2021/01/17 09:23:21;;;;;;;31.83;17.47;;;;;;;1.32;98.58;100528.22;641168;221;24826;-73
2021/01/17 09:25:49;;;;;;;29.53;17.17;;;;;;;1.04;99.36;100532.17;639426;221;30136;-72
2021/01/17 09:28:17;;;;;;;33.83;19.20;;;;;;;0.99;99.60;100532.86;642714;220;24812;-73
2021/01/17 09:30:49;;;;;;;36.70;22.10;;;;;;;1.09;99.44;100532.76;640545;221;32576;-70
2021/01/17 09:33:18;;;;;;;40.53;22.27;;;;;;;0.67;100.00;100538.72;649769;219;23689;-70
2021/01/17 09:35:46;;;;;;;47.50;26.60;;;;;;;0.75;100.00;100545.58;633438;221;34521;-73
2021/01/17 09:38:14;;;;;;;40.67;24.85;;;;;;;1.63;100.00;100532.13;635037;221;32793;-73
2021/01/17 09:40:42;;;;;;;35.40;20.83;;;;;;;1.95;98.79;100529.13;639178;221;23649;-74
2021/01/17 09:43:11;;;;;;;32.37;18.20;;;;;;;2.25;97.03;100534.78;648193;221;24805;-73
2021/01/17 09:45:39;;;;;;;28.33;17.20;;;;;;;1.94;95.84;100533.05;644703;222;24790;-72
2021/01/17 09:48:07;;;;;;;31.07;17.90;;;;;;;1.52;98.11;100548.50;640653;222;24776;-73
2021/01/17 09:50:36;;;;;;;29.47;17.60;;;;;;;1.43;98.18;100547.72;647891;218;24799;-73
2021/01/17 09:53:06;;;;;;;29.60;20.10;;;;;;;1.42;97.65;100552.02;634767;222;32701;-73
2021/01/17 09:55:35;;;;;;;30.57;19.07;;;;;;;1.38;99.07;100558.63;651923;218;23644;-73
2021/01/17 09:58:06;;;;;;;28.30;18.57;;;;;;;1.42;99.20;100570.41;644732;218;24853;-75
2021/01/17 10:00:34;;;;;;;27.50;17.13;;;;;;;1.38;99.28;100565.04;653844;218;24747;-74
2021/01/17 10:03:08;;;;;;;29.60;17.73;;;;;;;1.44;99.11;100568.59;647010;219;24749;-74
2021/01/17 10:05:38;;;;;;;31.90;17.13;;;;;;;1.76;98.88;100563.08;643499;217;24812;-75
2021/01/17 10:08:05;;;;;;;25.97;15.90;;;;;;;2.12;98.01;100560.30;644156;222;24787;-77
2021/01/17 10:10:33;;;;;;;30.17;17.10;;;;;;;2.91;96.53;100558.42;646653;222;27969;-73
2021/01/17 10:13:01;;;;;;;28.30;16.50;;;;;;;3.14;92.85;100549.39;649458;219;24742;-73
2021/01/17 10:15:29;;;;;;;30.80;16.83;;;;;;;3.36;91.06;100539.13;641160;222;24784;-72
2021/01/17 10:17:57;;;;;;;28.97;16.60;;;;;;;3.07;91.59;100544.69;641957;222;25834;-72
2021/01/17 10:20:25;;;;;;;29.47;16.10;;;;;;;3.34;91.42;100543.07;638221;221;25996;-72
2021/01/17 10:22:58;;;;;;;21.90;14.80;;;;;;;2.17;93.88;100552.34;641452;221;24618;-72
2021/01/17 10:25:26;;;;;;;26.52;18.35;;;;;;;2.20;95.08;100571.41;636699;221;32816;-75
2021/01/17 10:27:59;;;;;;;25.20;16.23;;;;;;;1.84;97.19;100569.09;655581;217;23651;-76
2021/01/17 10:30:28;;;;;;;26.80;17.00;;;;;;;1.78;97.77;100571.05;643537;221;24835;-72
2021/01/17 10:32:57;;;;;;;25.70;15.87;;;;;;;2.43;96.52;100565.87;640078;221;25177;-73
2021/01/17 10:35:25;;;;;;;27.77;19.10;;;;;;;2.77;94.59;100554.53;639010;221;32917;-72
2021/01/17 10:37:53;;;;;;;28.57;18.30;;;;;;;3.22;93.31;100552.33;646030;221;23687;-72
2021/01/17 10:40:26;;;;;;;25.30;15.67;;;;;;;2.86;92.99;100546.30;640721;220;24932;-73
2021/01/17 10:42:54;;;;;;;24.12;17.20;;;;;;;2.70;93.53;100549.38;634365;221;32688;-72
2021/01/17 10:45:22;;;;;;;22.10;14.10;;;;;;;3.14;94.04;100556.28;638555;221;23947;-72
2021/01/17 10:47:53;;;;;;;24.70;14.47;;;;;;;3.33;93.08;100541.42;635567;221;25390;-72
2021/01/17 10:50:21;;;;;;;19.67;13.17;;;;;;;3.77;90.75;100530.20;637696;222;24869;-72
2021/01/17 10:52:56;;;;;;;21.68;15.63;;;;;;;3.66;88.99;100526.16;631422;221;32781;-73
2021/01/17 10:55:25;;;;;;;22.37;13.87;;;;;;;3.41;91.75;100536.66;644472;221;24783;-74
2021/01/17 10:57:53;;;;;;;24.43;15.27;;;;;;;2.85;93.08;100553.64;638176;222;24826;-73
2021/01/17 11:00:23;;;;;;;22.93;14.50;;;;;;;2.62;94.43;100560.52;647594;222;24825;-73
2021/01/17 11:03:01;;;;;;;21.73;12.93;;;;;;;2.63;95.54;100572.45;643463;222;24850;-72
2021/01/17 11:05:29;;;;;;;22.23;13.57;;;;;;;3.18;93.99;100563.71;647971;219;27962;-72
2021/01/17 11:07:57;;;;;;;19.57;14.40;;;;;;;2.47;95.36;100562.66;644249;222;24778;-72
2021/01/17 11:10:26;;;;;;;24.03;14.83;;;;;;;2.29;97.63;100574.78;642426;222;24783;-72
2021/01/17 11:12:54;;;;;;;23.87;14.93;;;;;;;2.27;98.37;100573.58;639116;222;24796;-74
2021/01/17 11:15:23;;;;;;;23.00;15.17;;;;;;;2.98;97.44;100569.19;637613;222;24920;-72
2021/01/17 11:17:53;;;;;;;24.07;17.77;;;;;;;3.75;94.37;100560.34;635192;221;32783;-74
2021/01/17 11:20:25;;;;;;;21.60;14.70;;;;;;;3.56;92.54;100549.89;639548;222;23655;-73
2021/01/17 11:22:53;;;;;;;21.13;13.57;;;;;;;3.87;91.70;100551.42;654779;217;24725;-74